sensor_id;sensor_type;location;lat;lon;timestamp;temperature;humidity
2158;DHT22;41972;48.774;9.282;2023-08-31T00:02:09;13.10;99.90
2158;DHT22;41972;48.774;9.282;2023-08-31T00:04:35;13.00;99.90
2158;DHT22;41972;48.774;9.282;2023-08-31T00:07:00;12.80;99.90
2158;DHT22;41972;48.774;9.282;2023-08-31T00:09:26;12.80;99.90
2158;DHT22;41972;48.774;9.282;2023-08-31T00:11:51;12.90;99.90
2158;DHT22;41972;48.774;9.282;2023-08-31T00:14:17;12.90;99.90
2158;DHT22;41972;48.774;9.282;2023-08-31T00:16:43;12.80;99.90
2158;DHT22;41972;48.774;9.282;2023-08-31T00:19:12;12.80;99.90
2158;DHT22;41972;48.774;9.282;2023-08-31T00:21:39;12.80;99.90
2158;DHT22;41972;48.774;9.282;2023-08-31T00:24:06;12.90;99.90
2158;DHT22;41972;48.774;9.282;2023-08-31T00:26:32;12.90;99.90
2158;DHT22;41972;48.774;9.282;2023-08-31T00:28:58;12.80;99.90
2158;DHT22;41972;48.774;9.282;2023-08-31T00:31:24;12.80;99.90
2158;DHT22;41972;48.774;9.282;2023-08-31T00:33:49;12.80;99.90
2158;DHT22;41972;48.774;9.282;2023-08-31T00:36:15;12.80;99.90
2158;DHT22;41972;48.774;9.282;2023-08-31T00:38:43;12.90;99.90
2158;DHT22;41972;48.774;9.282;2023-08-31T00:41:10;12.90;99.90
2158;DHT22;41972;48.774;9.282;2023-08-31T00:43:35;12.80;99.90
2158;DHT22;41972;48.774;9.282;2023-08-31T00:46:02;12.70;99.90
2158;DHT22;41972;48.774;9.282;2023-08-31T00:48:28;12.70;99.90
2158;DHT22;41972;48.774;9.282;2023-08-31T00:50:53;12.70;99.90
2158;DHT22;41972;48.774;9.282;2023-08-31T00:53:20;12.60;99.90
2158;DHT22;41972;48.774;9.282;2023-08-31T00:55:45;12.60;99.90
2158;DHT22;41972;48.774;9.282;2023-08-31T00:58:11;12.60;99.90
2158;DHT22;41972;48.774;9.282;2023-08-31T01:00:43;12.60;99.90
2158;DHT22;41972;48.774;9.282;2023-08-31T01:03:13;12.50;99.90
2158;DHT22;41972;48.774;9.282;2023-08-31T01:05:54;12.50;99.90
2158;DHT22;41972;48.774;9.282;2023-08-31T01:08:42;12.30;99.90
2158;DHT22;41972;48.774;9.282;2023-08-31T01:11:27;12.30;99.90
2158;DHT22;41972;48.774;9.282;2023-08-31T01:14:02;12.20;99.90
2158;DHT22;41972;48.774;9.282;2023-08-31T01:16:33;12.10;99.90
2158;DHT22;41972;48.774;9.282;2023-08-31T01:19:02;12.00;99.90
2158;DHT22;41972;48.774;9.282;2023-08-31T01:21:38;11.90;99.90
2158;DHT22;41972;48.774;9.282;2023-08-31T01:24:06;11.80;99.90
2158;DHT22;41972;48.774;9.282;2023-08-31T01:26:32;11.70;99.90
2158;DHT22;41972;48.774;9.282;2023-08-31T01:28:58;11.50;99.90
2158;DHT22;41972;48.774;9.282;2023-08-31T01:31:24;11.60;99.90
2158;DHT22;41972;48.774;9.282;2023-08-31T01:33:50;11.50;99.90
2158;DHT22;41972;48.774;9.282;2023-08-31T01:36:24;11.40;99.90
2158;DHT22;41972;48.774;9.282;2023-08-31T01:39:21;11.40;99.90
2158;DHT22;41972;48.774;9.282;2023-08-31T01:41:43;11.30;99.90
2158;DHT22;41972;48.774;9.282;2023-08-31T01:44:13;11.30;99.90
2158;DHT22;41972;48.774;9.282;2023-08-31T01:46:41;11.30;99.90
2158;DHT22;41972;48.774;9.282;2023-08-31T01:49:07;11.20;99.90
2158;DHT22;41972;48.774;9.282;2023-08-31T01:51:33;11.80;99.90
2158;DHT22;41972;48.774;9.282;2023-08-31T01:53:59;11.30;99.90
2158;DHT22;41972;48.774;9.282;2023-08-31T01:56:24;11.30;99.90
2158;DHT22;41972;48.774;9.282;2023-08-31T01:58:50;11.30;99.90
2158;DHT22;41972;48.774;9.282;2023-08-31T02:01:15;11.30;99.90
2158;DHT22;41972;48.774;9.282;2023-08-31T02:03:41;11.40;99.90
2158;DHT22;41972;48.774;9.282;2023-08-31T02:06:07;11.50;99.90
2158;DHT22;41972;48.774;9.282;2023-08-31T02:08:32;11.40;99.90
2158;DHT22;41972;48.774;9.282;2023-08-31T02:10:58;11.50;99.90
2158;DHT22;41972;48.774;9.282;2023-08-31T02:13:23;11.60;99.90
2158;DHT22;41972;48.774;9.282;2023-08-31T02:15:52;11.70;99.90
2158;DHT22;41972;48.774;9.282;2023-08-31T02:18:19;11.70;99.90
2158;DHT22;41972;48.774;9.282;2023-08-31T02:20:45;11.70;99.90
2158;DHT22;41972;48.774;9.282;2023-08-31T02:23:10;11.80;99.90
2158;DHT22;41972;48.774;9.282;2023-08-31T02:25:37;11.80;99.90
2158;DHT22;41972;48.774;9.282;2023-08-31T02:28:03;11.80;99.90
2158;DHT22;41972;48.774;9.282;2023-08-31T02:30:29;11.80;99.90
2158;DHT22;41972;48.774;9.282;2023-08-31T02:32:54;11.70;99.90
2158;DHT22;41972;48.774;9.282;2023-08-31T02:35:20;11.80;99.90
2158;DHT22;41972;48.774;9.282;2023-08-31T02:37:45;11.90;99.90
2158;DHT22;41972;48.774;9.282;2023-08-31T02:40:11;12.00;99.90
2158;DHT22;41972;48.774;9.282;2023-08-31T02:42:37;12.10;99.90
2158;DHT22;41972;48.774;9.282;2023-08-31T02:45:03;12.20;99.90
2158;DHT22;41972;48.774;9.282;2023-08-31T02:47:29;12.30;99.90
2158;DHT22;41972;48.774;9.282;2023-08-31T02:49:54;12.40;99.90
2158;DHT22;41972;48.774;9.282;2023-08-31T02:52:21;12.40;99.90
2158;DHT22;41972;48.774;9.282;2023-08-31T02:54:47;12.50;99.90
2158;DHT22;41972;48.774;9.282;2023-08-31T02:57:13;12.50;99.90
2158;DHT22;41972;48.774;9.282;2023-08-31T02:59:38;12.60;99.90
2158;DHT22;41972;48.774;9.282;2023-08-31T03:02:04;12.50;99.90
2158;DHT22;41972;48.774;9.282;2023-08-31T03:04:30;12.50;99.90
2158;DHT22;41972;48.774;9.282;2023-08-31T03:06:56;12.50;99.90
2158;DHT22;41972;48.774;9.282;2023-08-31T03:09:22;12.40;99.90
2158;DHT22;41972;48.774;9.282;2023-08-31T03:11:47;12.50;99.90
2158;DHT22;41972;48.774;9.282;2023-08-31T03:14:13;12.50;99.90
2158;DHT22;41972;48.774;9.282;2023-08-31T03:16:38;12.50;99.90
2158;DHT22;41972;48.774;9.282;2023-08-31T03:19:05;12.50;99.90
2158;DHT22;41972;48.774;9.282;2023-08-31T03:21:31;12.40;99.90
2158;DHT22;41972;48.774;9.282;2023-08-31T03:23:57;12.40;99.90
2158;DHT22;41972;48.774;9.282;2023-08-31T03:26:23;12.20;99.90
2158;DHT22;41972;48.774;9.282;2023-08-31T03:28:48;12.20;99.90
2158;DHT22;41972;48.774;9.282;2023-08-31T03:31:14;12.10;99.90
2158;DHT22;41972;48.774;9.282;2023-08-31T03:33:40;12.20;99.90
2158;DHT22;41972;48.774;9.282;2023-08-31T03:36:05;12.10;99.90
2158;DHT22;41972;48.774;9.282;2023-08-31T03:38:32;12.20;99.90
2158;DHT22;41972;48.774;9.282;2023-08-31T03:41:02;12.10;99.90
2158;DHT22;41972;48.774;9.282;2023-08-31T03:43:28;12.10;99.90
2158;DHT22;41972;48.774;9.282;2023-08-31T03:45:55;11.90;99.90
2158;DHT22;41972;48.774;9.282;2023-08-31T03:48:24;11.80;99.90
2158;DHT22;41972;48.774;9.282;2023-08-31T03:50:53;11.80;99.90
2158;DHT22;41972;48.774;9.282;2023-08-31T03:53:20;11.80;99.90
2158;DHT22;41972;48.774;9.282;2023-08-31T03:55:46;11.80;99.90
2158;DHT22;41972;48.774;9.282;2023-08-31T03:58:12;11.90;99.90
2158;DHT22;41972;48.774;9.282;2023-08-31T04:00:38;12.00;99.90
2158;DHT22;41972;48.774;9.282;2023-08-31T04:03:05;11.90;99.90
2158;DHT22;41972;48.774;9.282;2023-08-31T04:05:34;11.90;99.90
2158;DHT22;41972;48.774;9.282;2023-08-31T04:08:00;12.00;99.90
2158;DHT22;41972;48.774;9.282;2023-08-31T04:10:26;11.90;99.90
2158;DHT22;41972;48.774;9.282;2023-08-31T04:12:52;12.00;99.90
2158;DHT22;41972;48.774;9.282;2023-08-31T04:15:19;12.10;99.90
2158;DHT22;41972;48.774;9.282;2023-08-31T04:17:44;11.90;99.90
2158;DHT22;41972;48.774;9.282;2023-08-31T04:20:11;11.90;99.90
2158;DHT22;41972;48.774;9.282;2023-08-31T04:22:36;11.90;99.90
2158;DHT22;41972;48.774;9.282;2023-08-31T04:25:02;11.90;99.90
2158;DHT22;41972;48.774;9.282;2023-08-31T04:27:28;11.80;99.90
2158;DHT22;41972;48.774;9.282;2023-08-31T04:29:55;11.80;99.90
2158;DHT22;41972;48.774;9.282;2023-08-31T04:32:21;11.50;99.90
2158;DHT22;41972;48.774;9.282;2023-08-31T04:34:46;11.40;99.90
2158;DHT22;41972;48.774;9.282;2023-08-31T04:37:12;11.40;99.90
2158;DHT22;41972;48.774;9.282;2023-08-31T04:39:37;11.40;99.90
2158;DHT22;41972;48.774;9.282;2023-08-31T04:42:03;11.30;99.90
2158;DHT22;41972;48.774;9.282;2023-08-31T04:44:29;11.20;99.90
2158;DHT22;41972;48.774;9.282;2023-08-31T04:46:54;11.10;99.90
2158;DHT22;41972;48.774;9.282;2023-08-31T04:49:20;11.10;99.90
2158;DHT22;41972;48.774;9.282;2023-08-31T04:51:45;11.00;99.90
2158;DHT22;41972;48.774;9.282;2023-08-31T04:54:11;11.00;99.90
2158;DHT22;41972;48.774;9.282;2023-08-31T04:56:37;11.10;99.90
2158;DHT22;41972;48.774;9.282;2023-08-31T04:59:03;11.30;99.90
2158;DHT22;41972;48.774;9.282;2023-08-31T05:01:28;11.20;99.90
2158;DHT22;41972;48.774;9.282;2023-08-31T05:03:54;11.40;99.90
2158;DHT22;41972;48.774;9.282;2023-08-31T05:06:19;11.40;99.90
2158;DHT22;41972;48.774;9.282;2023-08-31T05:08:47;12.50;99.90
2158;DHT22;41972;48.774;9.282;2023-08-31T05:11:13;11.40;99.90
2158;DHT22;41972;48.774;9.282;2023-08-31T05:13:38;11.50;99.90
2158;DHT22;41972;48.774;9.282;2023-08-31T05:16:10;11.50;99.90
2158;DHT22;41972;48.774;9.282;2023-08-31T05:18:36;11.60;99.90
2158;DHT22;41972;48.774;9.282;2023-08-31T05:21:03;11.80;99.90
2158;DHT22;41972;48.774;9.282;2023-08-31T05:23:29;11.60;99.90
2158;DHT22;41972;48.774;9.282;2023-08-31T05:25:55;11.70;99.90
2158;DHT22;41972;48.774;9.282;2023-08-31T05:28:22;11.80;99.90
2158;DHT22;41972;48.774;9.282;2023-08-31T05:30:52;12.00;99.90
2158;DHT22;41972;48.774;9.282;2023-08-31T05:33:18;12.10;99.90
2158;DHT22;41972;48.774;9.282;2023-08-31T05:35:44;12.30;99.90
2158;DHT22;41972;48.774;9.282;2023-08-31T05:38:10;12.30;99.90
2158;DHT22;41972;48.774;9.282;2023-08-31T05:40:36;12.50;99.90
2158;DHT22;41972;48.774;9.282;2023-08-31T05:43:02;12.70;99.90
2158;DHT22;41972;48.774;9.282;2023-08-31T05:45:32;12.70;99.90
2158;DHT22;41972;48.774;9.282;2023-08-31T05:47:59;12.60;99.90
2158;DHT22;41972;48.774;9.282;2023-08-31T05:50:26;12.50;99.90
2158;DHT22;41972;48.774;9.282;2023-08-31T05:52:51;12.70;99.90
2158;DHT22;41972;48.774;9.282;2023-08-31T05:55:17;12.90;99.90
2158;DHT22;41972;48.774;9.282;2023-08-31T05:57:42;13.10;99.90
2158;DHT22;41972;48.774;9.282;2023-08-31T06:00:08;13.20;99.90
2158;DHT22;41972;48.774;9.282;2023-08-31T06:02:34;13.40;99.90
2158;DHT22;41972;48.774;9.282;2023-08-31T06:05:01;13.50;99.90
2158;DHT22;41972;48.774;9.282;2023-08-31T06:07:27;13.70;99.90
2158;DHT22;41972;48.774;9.282;2023-08-31T06:09:55;14.00;99.90
2158;DHT22;41972;48.774;9.282;2023-08-31T06:12:21;14.10;99.90
2158;DHT22;41972;48.774;9.282;2023-08-31T06:14:46;14.30;99.90
2158;DHT22;41972;48.774;9.282;2023-08-31T06:17:12;14.50;99.90
2158;DHT22;41972;48.774;9.282;2023-08-31T06:19:41;14.90;99.90
2158;DHT22;41972;48.774;9.282;2023-08-31T06:22:08;15.20;99.90
2158;DHT22;41972;48.774;9.282;2023-08-31T06:24:33;15.50;99.90
2158;DHT22;41972;48.774;9.282;2023-08-31T06:27:00;15.30;99.90
2158;DHT22;41972;48.774;9.282;2023-08-31T06:29:25;15.40;99.90
2158;DHT22;41972;48.774;9.282;2023-08-31T06:31:51;15.30;99.90
2158;DHT22;41972;48.774;9.282;2023-08-31T06:34:16;15.60;99.90
2158;DHT22;41972;48.774;9.282;2023-08-31T06:36:42;16.10;99.90
2158;DHT22;41972;48.774;9.282;2023-08-31T06:39:08;16.40;99.90
2158;DHT22;41972;48.774;9.282;2023-08-31T06:41:33;16.10;99.90
2158;DHT22;41972;48.774;9.282;2023-08-31T06:43:59;16.30;99.90
2158;DHT22;41972;48.774;9.282;2023-08-31T06:46:24;16.10;99.90
2158;DHT22;41972;48.774;9.282;2023-08-31T06:48:50;16.40;99.90
2158;DHT22;41972;48.774;9.282;2023-08-31T06:51:16;16.50;99.90
2158;DHT22;41972;48.774;9.282;2023-08-31T06:53:43;17.30;99.90
2158;DHT22;41972;48.774;9.282;2023-08-31T06:56:09;17.80;99.90
2158;DHT22;41972;48.774;9.282;2023-08-31T06:58:35;17.90;99.90
2158;DHT22;41972;48.774;9.282;2023-08-31T07:01:00;18.10;99.90
2158;DHT22;41972;48.774;9.282;2023-08-31T07:03:26;18.20;99.90
2158;DHT22;41972;48.774;9.282;2023-08-31T07:05:52;18.00;99.90
2158;DHT22;41972;48.774;9.282;2023-08-31T07:08:17;17.20;99.90
2158;DHT22;41972;48.774;9.282;2023-08-31T07:10:43;17.80;99.90
2158;DHT22;41972;48.774;9.282;2023-08-31T07:13:09;18.20;99.90
2158;DHT22;41972;48.774;9.282;2023-08-31T07:15:34;17.80;99.90
2158;DHT22;41972;48.774;9.282;2023-08-31T07:18:00;18.50;99.90
2158;DHT22;41972;48.774;9.282;2023-08-31T07:20:25;19.60;99.90
2158;DHT22;41972;48.774;9.282;2023-08-31T07:22:51;20.30;99.90
2158;DHT22;41972;48.774;9.282;2023-08-31T07:25:17;22.10;99.90
2158;DHT22;41972;48.774;9.282;2023-08-31T07:27:42;21.40;99.90
2158;DHT22;41972;48.774;9.282;2023-08-31T07:30:10;18.20;99.90
2158;DHT22;41972;48.774;9.282;2023-08-31T07:32:36;18.60;99.90
2158;DHT22;41972;48.774;9.282;2023-08-31T07:35:01;18.90;99.90
2158;DHT22;41972;48.774;9.282;2023-08-31T07:37:30;18.00;99.90
2158;DHT22;41972;48.774;9.282;2023-08-31T07:39:55;18.70;99.90
2158;DHT22;41972;48.774;9.282;2023-08-31T07:42:21;19.60;99.90
2158;DHT22;41972;48.774;9.282;2023-08-31T07:44:46;21.20;99.90
2158;DHT22;41972;48.774;9.282;2023-08-31T07:47:12;20.80;99.90
2158;DHT22;41972;48.774;9.282;2023-08-31T07:49:38;22.60;99.90
2158;DHT22;41972;48.774;9.282;2023-08-31T07:52:03;21.90;99.90
2158;DHT22;41972;48.774;9.282;2023-08-31T07:54:30;23.00;99.90
2158;DHT22;41972;48.774;9.282;2023-08-31T07:56:55;24.10;99.90
2158;DHT22;41972;48.774;9.282;2023-08-31T07:59:21;25.10;99.90
2158;DHT22;41972;48.774;9.282;2023-08-31T08:01:47;25.40;99.90
2158;DHT22;41972;48.774;9.282;2023-08-31T08:04:13;23.10;99.90
2158;DHT22;41972;48.774;9.282;2023-08-31T08:06:39;22.30;99.90
2158;DHT22;41972;48.774;9.282;2023-08-31T08:09:05;23.90;99.90
2158;DHT22;41972;48.774;9.282;2023-08-31T08:11:31;25.90;94.50
2158;DHT22;41972;48.774;9.282;2023-08-31T08:13:57;25.20;90.80
2158;DHT22;41972;48.774;9.282;2023-08-31T08:16:22;24.10;91.50
2158;DHT22;41972;48.774;9.282;2023-08-31T08:18:49;24.70;80.60
2158;DHT22;41972;48.774;9.282;2023-08-31T08:21:15;24.70;62.80
2158;DHT22;41972;48.774;9.282;2023-08-31T08:23:40;27.10;61.80
2158;DHT22;41972;48.774;9.282;2023-08-31T08:26:06;28.40;58.30
2158;DHT22;41972;48.774;9.282;2023-08-31T08:28:31;27.30;37.40
2158;DHT22;41972;48.774;9.282;2023-08-31T08:31:03;27.20;47.10
2158;DHT22;41972;48.774;9.282;2023-08-31T08:33:32;25.70;47.50
2158;DHT22;41972;48.774;9.282;2023-08-31T08:35:58;26.00;39.80
2158;DHT22;41972;48.774;9.282;2023-08-31T08:38:25;24.50;39.20
2158;DHT22;41972;48.774;9.282;2023-08-31T08:40:51;24.10;37.60
2158;DHT22;41972;48.774;9.282;2023-08-31T08:43:22;23.60;39.60
2158;DHT22;41972;48.774;9.282;2023-08-31T08:45:51;23.40;44.30
2158;DHT22;41972;48.774;9.282;2023-08-31T08:48:17;20.80;37.80
2158;DHT22;41972;48.774;9.282;2023-08-31T08:50:44;20.70;49.60
2158;DHT22;41972;48.774;9.282;2023-08-31T08:53:11;20.90;55.30
2158;DHT22;41972;48.774;9.282;2023-08-31T08:55:39;20.70;51.20
2158;DHT22;41972;48.774;9.282;2023-08-31T08:58:05;21.10;51.10
2158;DHT22;41972;48.774;9.282;2023-08-31T09:00:32;21.70;39.00
2158;DHT22;41972;48.774;9.282;2023-08-31T09:02:59;22.20;48.10
2158;DHT22;41972;48.774;9.282;2023-08-31T09:05:25;20.70;49.90
2158;DHT22;41972;48.774;9.282;2023-08-31T09:08:03;20.00;57.40
2158;DHT22;41972;48.774;9.282;2023-08-31T09:10:45;19.80;66.00
2158;DHT22;41972;48.774;9.282;2023-08-31T09:13:12;18.60;70.80
2158;DHT22;41972;48.774;9.282;2023-08-31T09:15:46;18.90;81.40
2158;DHT22;41972;48.774;9.282;2023-08-31T09:18:17;19.90;79.10
2158;DHT22;41972;48.774;9.282;2023-08-31T09:20:48;24.10;70.40
2158;DHT22;41972;48.774;9.282;2023-08-31T09:23:14;24.60;45.00
2158;DHT22;41972;48.774;9.282;2023-08-31T09:25:44;26.70;41.70
2158;DHT22;41972;48.774;9.282;2023-08-31T09:28:12;25.30;37.90
2158;DHT22;41972;48.774;9.282;2023-08-31T09:30:38;24.30;39.40
2158;DHT22;41972;48.774;9.282;2023-08-31T09:33:07;22.30;40.90
2158;DHT22;41972;48.774;9.282;2023-08-31T09:35:34;21.60;49.40
2158;DHT22;41972;48.774;9.282;2023-08-31T09:38:03;23.30;51.80
2158;DHT22;41972;48.774;9.282;2023-08-31T09:40:32;26.10;54.90
2158;DHT22;41972;48.774;9.282;2023-08-31T09:42:57;25.60;38.70
2158;DHT22;41972;48.774;9.282;2023-08-31T09:45:30;26.30;37.40
2158;DHT22;41972;48.774;9.282;2023-08-31T09:48:00;27.00;26.50
2158;DHT22;41972;48.774;9.282;2023-08-31T09:50:29;25.70;27.80
2158;DHT22;41972;48.774;9.282;2023-08-31T09:52:56;24.00;37.70
2158;DHT22;41972;48.774;9.282;2023-08-31T09:55:28;21.70;34.40
2158;DHT22;41972;48.774;9.282;2023-08-31T09:57:56;20.60;43.00
2158;DHT22;41972;48.774;9.282;2023-08-31T10:00:23;22.20;47.80
2158;DHT22;41972;48.774;9.282;2023-08-31T10:02:49;24.40;40.60
2158;DHT22;41972;48.774;9.282;2023-08-31T10:05:15;25.30;41.20
2158;DHT22;41972;48.774;9.282;2023-08-31T10:07:43;28.20;32.90
2158;DHT22;41972;48.774;9.282;2023-08-31T10:10:09;28.80;21.40
2158;DHT22;41972;48.774;9.282;2023-08-31T10:12:35;28.60;19.20
2158;DHT22;41972;48.774;9.282;2023-08-31T10:15:02;29.10;18.70
2158;DHT22;41972;48.774;9.282;2023-08-31T10:17:28;26.30;12.30
2158;DHT22;41972;48.774;9.282;2023-08-31T10:19:55;23.90;16.00
2158;DHT22;41972;48.774;9.282;2023-08-31T10:22:21;24.80;16.10
2158;DHT22;41972;48.774;9.282;2023-08-31T10:25:03;21.80;18.30
2158;DHT22;41972;48.774;9.282;2023-08-31T10:27:43;21.00;20.50
2158;DHT22;41972;48.774;9.282;2023-08-31T10:35:57;23.80;23.10
2158;DHT22;41972;48.774;9.282;2023-08-31T10:38:29;26.90;20.30
2158;DHT22;41972;48.774;9.282;2023-08-31T10:41:21;25.00;10.60
2158;DHT22;41972;48.774;9.282;2023-08-31T10:46:35;21.20;17.50
2158;DHT22;41972;48.774;9.282;2023-08-31T10:51:35;18.80;28.40
2158;DHT22;41972;48.774;9.282;2023-08-31T10:54:05;18.90;37.00
2158;DHT22;41972;48.774;9.282;2023-08-31T10:56:31;19.10;41.40
2158;DHT22;41972;48.774;9.282;2023-08-31T10:58:58;19.30;49.40
2158;DHT22;41972;48.774;9.282;2023-08-31T11:04:25;19.40;50.50
2158;DHT22;41972;48.774;9.282;2023-08-31T11:07:17;20.50;49.30
2158;DHT22;41972;48.774;9.282;2023-08-31T11:09:44;20.50;42.70
2158;DHT22;41972;48.774;9.282;2023-08-31T11:12:11;20.50;45.00
2158;DHT22;41972;48.774;9.282;2023-08-31T11:14:37;20.50;48.00
2158;DHT22;41972;48.774;9.282;2023-08-31T11:17:03;20.60;37.80
2158;DHT22;41972;48.774;9.282;2023-08-31T11:19:31;19.50;38.40
2158;DHT22;41972;48.774;9.282;2023-08-31T11:21:57;18.80;43.70
2158;DHT22;41972;48.774;9.282;2023-08-31T11:24:22;18.70;44.20
2158;DHT22;41972;48.774;9.282;2023-08-31T11:26:50;18.90;47.40
2158;DHT22;41972;48.774;9.282;2023-08-31T11:29:16;19.30;49.90
2158;DHT22;41972;48.774;9.282;2023-08-31T11:31:41;20.00;55.20
2158;DHT22;41972;48.774;9.282;2023-08-31T11:34:12;19.40;44.90
2158;DHT22;41972;48.774;9.282;2023-08-31T11:36:38;19.50;51.10
2158;DHT22;41972;48.774;9.282;2023-08-31T11:39:04;19.70;59.00
2158;DHT22;41972;48.774;9.282;2023-08-31T11:41:33;20.50;55.50
2158;DHT22;41972;48.774;9.282;2023-08-31T11:44:01;21.50;53.70
2158;DHT22;41972;48.774;9.282;2023-08-31T11:46:27;21.00;46.40
2158;DHT22;41972;48.774;9.282;2023-08-31T11:48:53;20.40;44.70
2158;DHT22;41972;48.774;9.282;2023-08-31T11:51:19;20.60;49.60
2158;DHT22;41972;48.774;9.282;2023-08-31T11:53:45;19.70;50.00
2158;DHT22;41972;48.774;9.282;2023-08-31T11:56:11;19.70;53.20
2158;DHT22;41972;48.774;9.282;2023-08-31T11:58:42;20.40;54.90
2158;DHT22;41972;48.774;9.282;2023-08-31T12:01:18;19.90;46.60
2158;DHT22;41972;48.774;9.282;2023-08-31T12:03:45;19.40;50.10
2158;DHT22;41972;48.774;9.282;2023-08-31T12:06:11;19.40;49.90
2158;DHT22;41972;48.774;9.282;2023-08-31T12:08:37;19.70;46.10
2158;DHT22;41972;48.774;9.282;2023-08-31T12:11:05;19.60;51.40
2158;DHT22;41972;48.774;9.282;2023-08-31T12:13:31;20.30;57.30
2158;DHT22;41972;48.774;9.282;2023-08-31T12:15:57;20.40;49.50
2158;DHT22;41972;48.774;9.282;2023-08-31T12:18:23;21.00;58.60
2158;DHT22;41972;48.774;9.282;2023-08-31T12:20:52;21.90;57.90
2158;DHT22;41972;48.774;9.282;2023-08-31T12:23:18;22.00;48.00
2158;DHT22;41972;48.774;9.282;2023-08-31T12:25:51;21.60;47.70
2158;DHT22;41972;48.774;9.282;2023-08-31T12:28:17;22.10;46.70
2158;DHT22;41972;48.774;9.282;2023-08-31T12:30:51;21.50;50.70
2158;DHT22;41972;48.774;9.282;2023-08-31T12:33:17;20.80;47.70
2158;DHT22;41972;48.774;9.282;2023-08-31T12:35:44;20.20;48.90
2158;DHT22;41972;48.774;9.282;2023-08-31T12:38:10;20.70;50.00
2158;DHT22;41972;48.774;9.282;2023-08-31T12:40:35;20.80;52.20
2158;DHT22;41972;48.774;9.282;2023-08-31T12:43:01;20.20;51.50
2158;DHT22;41972;48.774;9.282;2023-08-31T12:45:27;20.60;52.20
2158;DHT22;41972;48.774;9.282;2023-08-31T12:47:53;21.00;54.70
2158;DHT22;41972;48.774;9.282;2023-08-31T12:50:18;20.70;50.90
2158;DHT22;41972;48.774;9.282;2023-08-31T12:52:45;20.80;55.00
2158;DHT22;41972;48.774;9.282;2023-08-31T12:55:15;20.50;51.70
2158;DHT22;41972;48.774;9.282;2023-08-31T12:57:41;20.30;52.70
2158;DHT22;41972;48.774;9.282;2023-08-31T13:00:08;20.40;54.90
2158;DHT22;41972;48.774;9.282;2023-08-31T13:02:42;21.30;54.40
2158;DHT22;41972;48.774;9.282;2023-08-31T13:05:10;21.70;54.30
2158;DHT22;41972;48.774;9.282;2023-08-31T13:07:37;22.20;48.60
2158;DHT22;41972;48.774;9.282;2023-08-31T13:10:03;22.00;52.80
2158;DHT22;41972;48.774;9.282;2023-08-31T13:12:30;21.30;53.90
2158;DHT22;41972;48.774;9.282;2023-08-31T13:14:58;20.00;48.50
2158;DHT22;41972;48.774;9.282;2023-08-31T13:17:24;19.80;56.20
2158;DHT22;41972;48.774;9.282;2023-08-31T13:19:57;19.80;54.40
2158;DHT22;41972;48.774;9.282;2023-08-31T13:22:23;19.50;56.70
2158;DHT22;41972;48.774;9.282;2023-08-31T13:24:50;19.10;64.40
2158;DHT22;41972;48.774;9.282;2023-08-31T13:27:16;19.60;67.20
2158;DHT22;41972;48.774;9.282;2023-08-31T13:29:42;19.70;70.20
2158;DHT22;41972;48.774;9.282;2023-08-31T13:32:08;19.80;64.10
2158;DHT22;41972;48.774;9.282;2023-08-31T13:34:35;20.10;66.50
2158;DHT22;41972;48.774;9.282;2023-08-31T13:37:02;20.50;70.00
2158;DHT22;41972;48.774;9.282;2023-08-31T13:39:28;20.50;64.10
2158;DHT22;41972;48.774;9.282;2023-08-31T13:41:55;20.70;61.00
2158;DHT22;41972;48.774;9.282;2023-08-31T13:44:21;20.70;63.30
2158;DHT22;41972;48.774;9.282;2023-08-31T13:46:48;21.00;56.70
2158;DHT22;41972;48.774;9.282;2023-08-31T13:49:13;20.60;60.40
2158;DHT22;41972;48.774;9.282;2023-08-31T13:51:40;20.30;56.20
2158;DHT22;41972;48.774;9.282;2023-08-31T13:54:06;20.20;58.10
2158;DHT22;41972;48.774;9.282;2023-08-31T13:56:33;20.00;54.00
2158;DHT22;41972;48.774;9.282;2023-08-31T13:58:58;20.10;60.90
2158;DHT22;41972;48.774;9.282;2023-08-31T14:01:25;20.10;67.20
2158;DHT22;41972;48.774;9.282;2023-08-31T14:03:50;20.00;70.20
2158;DHT22;41972;48.774;9.282;2023-08-31T14:06:16;19.90;58.90
2158;DHT22;41972;48.774;9.282;2023-08-31T14:08:42;20.20;67.20
2158;DHT22;41972;48.774;9.282;2023-08-31T14:11:07;20.50;70.80
2158;DHT22;41972;48.774;9.282;2023-08-31T14:13:33;20.80;69.70
2158;DHT22;41972;48.774;9.282;2023-08-31T14:16:00;20.50;68.70
2158;DHT22;41972;48.774;9.282;2023-08-31T14:18:29;20.30;72.50
2158;DHT22;41972;48.774;9.282;2023-08-31T14:20:57;20.20;72.80
2158;DHT22;41972;48.774;9.282;2023-08-31T14:23:26;20.00;71.20
2158;DHT22;41972;48.774;9.282;2023-08-31T14:25:52;19.90;75.50
2158;DHT22;41972;48.774;9.282;2023-08-31T14:28:19;19.30;71.40
2158;DHT22;41972;48.774;9.282;2023-08-31T14:30:44;19.00;75.10
2158;DHT22;41972;48.774;9.282;2023-08-31T14:33:10;18.80;75.90
2158;DHT22;41972;48.774;9.282;2023-08-31T14:35:37;18.80;79.80
2158;DHT22;41972;48.774;9.282;2023-08-31T14:38:03;18.90;87.70
2158;DHT22;41972;48.774;9.282;2023-08-31T14:40:28;19.00;83.60
2158;DHT22;41972;48.774;9.282;2023-08-31T14:42:54;18.90;88.30
2158;DHT22;41972;48.774;9.282;2023-08-31T14:45:20;19.10;87.60
2158;DHT22;41972;48.774;9.282;2023-08-31T14:47:45;19.10;83.50
2158;DHT22;41972;48.774;9.282;2023-08-31T14:50:12;19.30;87.50
2158;DHT22;41972;48.774;9.282;2023-08-31T14:52:38;19.30;88.30
2158;DHT22;41972;48.774;9.282;2023-08-31T14:55:04;19.40;91.10
2158;DHT22;41972;48.774;9.282;2023-08-31T14:57:30;19.70;90.70
2158;DHT22;41972;48.774;9.282;2023-08-31T14:59:56;19.40;88.90
2158;DHT22;41972;48.774;9.282;2023-08-31T15:02:27;19.50;90.60
2158;DHT22;41972;48.774;9.282;2023-08-31T15:04:52;19.40;90.30
2158;DHT22;41972;48.774;9.282;2023-08-31T15:07:18;19.00;92.90
2158;DHT22;41972;48.774;9.282;2023-08-31T15:09:44;19.10;92.60
2158;DHT22;41972;48.774;9.282;2023-08-31T15:12:10;19.20;90.80
2158;DHT22;41972;48.774;9.282;2023-08-31T15:14:35;18.60;87.80
2158;DHT22;41972;48.774;9.282;2023-08-31T15:17:04;18.70;90.80
2158;DHT22;41972;48.774;9.282;2023-08-31T15:19:30;18.50;91.60
2158;DHT22;41972;48.774;9.282;2023-08-31T15:21:58;18.80;93.50
2158;DHT22;41972;48.774;9.282;2023-08-31T15:24:23;19.00;93.70
2158;DHT22;41972;48.774;9.282;2023-08-31T15:26:49;18.90;96.10
2158;DHT22;41972;48.774;9.282;2023-08-31T15:29:14;18.90;94.40
2158;DHT22;41972;48.774;9.282;2023-08-31T15:31:40;18.70;94.60
2158;DHT22;41972;48.774;9.282;2023-08-31T15:34:05;18.90;95.40
2158;DHT22;41972;48.774;9.282;2023-08-31T15:36:31;19.10;95.60
2158;DHT22;41972;48.774;9.282;2023-08-31T15:38:56;19.20;97.00
2158;DHT22;41972;48.774;9.282;2023-08-31T15:41:22;19.50;97.50
2158;DHT22;41972;48.774;9.282;2023-08-31T15:43:47;19.30;94.60
2158;DHT22;41972;48.774;9.282;2023-08-31T15:46:13;19.60;94.90
2158;DHT22;41972;48.774;9.282;2023-08-31T15:48:39;19.90;94.10
2158;DHT22;41972;48.774;9.282;2023-08-31T15:51:04;19.80;93.80
2158;DHT22;41972;48.774;9.282;2023-08-31T15:53:30;19.60;93.80
2158;DHT22;41972;48.774;9.282;2023-08-31T15:55:59;19.90;92.80
2158;DHT22;41972;48.774;9.282;2023-08-31T15:58:25;19.90;93.70